createdAt,value
2022-10-29T00:04:32.671Z,6.72
2022-10-29T00:09:36.827Z,7.20
2022-10-29T00:14:39.613Z,7.97
2022-10-29T00:19:42.543Z,8.20
2022-10-29T00:24:46.727Z,7.40
2022-10-29T00:29:49.451Z,8.50
2022-10-29T00:34:52.186Z,8.77
2022-10-29T00:39:56.320Z,8.10
2022-10-29T00:44:59.110Z,7.97
2022-10-29T00:50:06.054Z,8.45
2022-10-29T00:55:15.386Z,8.48
2022-10-29T01:00:18.931Z,9.23
2022-10-29T01:05:24.931Z,8.68
2022-10-29T01:10:37.665Z,9.63
2022-10-29T01:15:49.254Z,8.98
2022-10-29T01:21:22.257Z,9.07
2022-10-29T01:26:49.391Z,9.27
2022-10-29T01:31:57.687Z,8.55
2022-10-29T01:37:03.998Z,9.15
2022-10-29T01:42:14.273Z,9.45
2022-10-29T01:47:20.751Z,9.82
2022-10-29T01:52:26.523Z,9.50
2022-10-29T01:57:34.282Z,9.85
2022-10-29T02:02:51.918Z,10.00
2022-10-29T02:07:58.803Z,9.57
2022-10-29T02:13:01.757Z,10.18
2022-10-29T02:18:07.543Z,10.65
2022-10-29T02:23:10.940Z,10.65
2022-10-29T02:28:13.901Z,10.20
2022-10-29T02:33:18.056Z,10.45
2022-10-29T02:38:20.861Z,10.80
2022-10-29T02:43:23.703Z,10.88
2022-10-29T02:48:27.866Z,11.75
2022-10-29T02:53:30.649Z,10.52
2022-10-29T02:58:33.729Z,11.30
2022-10-29T03:03:37.866Z,11.65
2022-10-29T03:08:40.716Z,12.05
2022-10-29T03:13:43.994Z,13.70
2022-10-29T03:18:48.141Z,11.63
2022-10-29T03:23:50.899Z,11.43
2022-10-29T03:28:53.675Z,11.32
2022-10-29T03:33:57.923Z,11.80
2022-10-29T03:39:00.743Z,13.30
2022-10-29T03:44:03.566Z,12.13
2022-10-29T03:49:07.736Z,11.38
2022-10-29T03:54:10.508Z,12.35
2022-10-29T03:59:13.248Z,13.38
2022-10-29T04:04:17.443Z,12.43
2022-10-29T04:09:20.319Z,12.20
2022-10-29T04:14:23.251Z,11.38
2022-10-29T04:19:27.579Z,12.88
2022-10-29T04:29:53.221Z,12.85
2022-10-29T04:34:57.461Z,16.10
2022-10-29T04:40:00.352Z,15.00
2022-10-29T04:45:03.129Z,15.02
2022-10-29T04:50:07.915Z,14.15
2022-10-29T04:55:10.781Z,15.05
2022-10-29T05:00:17.921Z,13.88
2022-10-29T05:05:23.368Z,13.88
2022-10-29T05:10:27.731Z,13.70
2022-10-29T05:15:31.603Z,14.35
2022-10-29T05:20:36.816Z,14.27
2022-10-29T05:25:41.795Z,12.82
2022-10-29T05:30:44.649Z,15.13
2022-10-29T05:35:49.227Z,13.18
2022-10-29T05:40:52.009Z,13.50
2022-10-29T05:45:54.918Z,14.90
2022-10-29T05:50:59.568Z,13.48
2022-10-29T05:56:02.364Z,12.98
2022-10-29T06:01:08.512Z,7.38
2022-10-29T06:06:12.945Z,9.65
2022-10-29T06:11:15.808Z,9.38
2022-10-29T06:16:18.860Z,9.15
2022-10-29T06:21:22.990Z,9.25
2022-10-29T06:26:25.806Z,8.95
2022-10-29T06:31:28.576Z,9.05
2022-10-29T06:36:32.692Z,8.88
2022-10-29T06:41:35.504Z,8.23
2022-10-29T06:46:39.035Z,8.85
2022-10-29T06:51:43.222Z,7.82
2022-10-29T06:56:45.996Z,7.75
2022-10-29T07:01:48.805Z,7.65
2022-10-29T07:06:52.948Z,9.38
2022-10-29T07:11:55.749Z,10.23
2022-10-29T07:16:58.672Z,10.60
2022-10-29T07:22:02.971Z,9.82
2022-10-29T07:27:07.330Z,9.02
2022-10-29T07:32:13.075Z,11.02
2022-10-29T07:37:17.219Z,11.75
2022-10-29T07:42:19.999Z,13.02
2022-10-29T07:47:22.847Z,14.30
2022-10-29T07:52:27.009Z,13.90
2022-10-29T07:57:29.849Z,13.50
2022-10-29T08:02:32.672Z,13.25
2022-10-29T08:07:37.124Z,14.45
2022-10-29T08:12:39.924Z,12.43
2022-10-29T08:17:42.791Z,13.68
2022-10-29T08:22:47.003Z,13.35
2022-10-29T08:27:59.604Z,14.02
2022-10-29T08:33:02.643Z,13.20
2022-10-29T08:38:06.854Z,12.77
2022-10-29T08:43:47.015Z,12.23
2022-10-29T08:48:54.745Z,12.85
2022-10-29T08:59:24.135Z,11.93
2022-10-29T09:04:30.788Z,11.63
2022-10-29T09:09:40.199Z,11.07
2022-10-29T09:15:04.060Z,13.23
2022-10-29T09:20:24.236Z,11.45
2022-10-29T09:25:31.343Z,11.63
2022-10-29T09:30:43.170Z,10.68
2022-10-29T09:35:48.831Z,11.10
2022-10-29T09:40:53.133Z,9.48
2022-10-29T09:46:01.869Z,9.95
2022-10-29T09:51:15.224Z,9.98
2022-10-29T09:56:19.578Z,9.52
2022-10-29T10:01:22.558Z,9.95
2022-10-29T10:06:25.458Z,10.13
2022-10-29T10:11:38.014Z,8.88
2022-10-29T10:21:57.628Z,9.32
2022-10-29T10:27:02.446Z,9.13
2022-10-29T10:32:15.980Z,8.18
2022-10-29T10:37:20.939Z,8.27
2022-10-29T10:42:28.548Z,9.15
2022-10-29T10:47:35.360Z,9.18
2022-10-29T10:52:38.467Z,8.20
2022-10-29T10:57:50.016Z,8.93
2022-10-29T11:02:57.569Z,9.67
2022-10-29T11:08:06.420Z,8.18
2022-10-29T11:13:16.128Z,8.10
2022-10-29T11:18:24.368Z,6.97
2022-10-29T11:23:36.791Z,7.88
2022-10-29T11:28:45.596Z,7.30
2022-10-29T11:33:57.234Z,6.60
2022-10-29T11:39:05.115Z,7.88
2022-10-29T11:44:12.839Z,7.07
2022-10-29T11:49:31.379Z,7.78
2022-10-29T11:54:53.488Z,7.13
2022-10-29T12:00:16.131Z,7.65
2022-10-29T12:05:27.435Z,7.32
2022-10-29T12:10:44.818Z,6.20
2022-10-29T12:16:04.539Z,6.10
2022-10-29T12:21:11.359Z,6.68
2022-10-29T12:26:19.547Z,7.00
2022-10-29T12:31:30.059Z,6.15
2022-10-29T12:36:39.014Z,6.20
2022-10-29T12:41:47.116Z,5.78
2022-10-29T12:46:58.525Z,5.53
2022-10-29T12:52:08.231Z,6.77
2022-10-29T12:57:29.172Z,6.32
2022-10-29T13:02:47.075Z,5.50
2022-10-29T13:08:32.393Z,6.47
2022-10-29T13:13:53.477Z,5.35
2022-10-29T13:19:22.291Z,6.47
2022-10-29T13:24:25.768Z,6.15
2022-10-29T13:29:42.180Z,5.35
2022-10-29T13:34:57.995Z,5.28
2022-10-29T13:40:34.294Z,5.30
2022-10-29T13:45:40.847Z,5.28
2022-10-29T13:50:49.961Z,5.35
2022-10-29T13:55:54.120Z,5.03
2022-10-29T14:00:58.557Z,5.43
2022-10-29T14:06:11.743Z,5.63
2022-10-29T14:11:18.152Z,4.55
2022-10-29T14:16:29.077Z,5.32
2022-10-29T14:21:39.332Z,6.05
2022-10-29T14:26:43.859Z,4.40
2022-10-29T14:31:47.248Z,4.90
2022-10-29T14:36:54.039Z,4.80
2022-10-29T14:41:57.468Z,5.40
2022-10-29T14:47:05.673Z,6.07
2022-10-29T14:52:28.847Z,6.30
2022-10-29T14:57:36.216Z,7.18
2022-10-29T15:02:42.558Z,6.32
2022-10-29T15:07:46.827Z,7.43
2022-10-29T15:12:50.780Z,7.38
2022-10-29T15:17:58.944Z,7.88
2022-10-29T15:23:04.348Z,7.68
2022-10-29T15:28:11.448Z,7.97
2022-10-29T15:33:19.075Z,6.10
2022-10-29T15:39:08.985Z,6.88
2022-10-29T15:44:30.121Z,6.68
2022-10-29T15:49:33.185Z,8.55
2022-10-29T15:54:38.107Z,7.93
2022-10-29T15:59:41.805Z,8.10
2022-10-29T16:04:44.698Z,7.72
2022-10-29T16:09:51.454Z,7.97
2022-10-29T16:14:54.502Z,7.60
2022-10-29T16:19:57.439Z,7.75
2022-10-29T16:25:01.800Z,8.10
2022-10-29T16:30:05.136Z,8.73
2022-10-29T16:35:14.540Z,7.50
2022-10-29T16:40:19.512Z,7.65
2022-10-29T16:45:24.484Z,8.57
2022-10-29T16:50:29.247Z,8.02
2022-10-29T16:55:35.980Z,8.65
2022-10-29T17:00:38.988Z,8.90
2022-10-29T17:05:44.089Z,8.10
2022-10-29T17:10:48.261Z,9.13
2022-10-29T17:15:51.186Z,9.23
2022-10-29T17:20:58.197Z,9.45
2022-10-29T17:26:02.523Z,8.80
2022-10-29T17:31:06.696Z,9.45
2022-10-29T17:36:13.788Z,8.88
2022-10-29T17:41:18.097Z,8.05
2022-10-29T17:46:21.006Z,9.70
2022-10-29T17:51:24.970Z,9.25
2022-10-29T17:56:29.923Z,9.40
2022-10-29T18:01:33.189Z,8.75
2022-10-29T18:06:36.175Z,10.80
2022-10-29T18:11:40.628Z,9.18
2022-10-29T18:16:43.655Z,8.98
2022-10-29T18:21:46.829Z,9.88
2022-10-29T18:26:51.376Z,9.82
2022-10-29T18:31:54.340Z,8.93
2022-10-29T18:36:57.316Z,9.98
2022-10-29T18:42:01.759Z,11.75
2022-10-29T18:47:04.629Z,9.82
2022-10-29T18:52:07.520Z,9.05
2022-10-29T18:57:15.399Z,9.60
2022-10-29T19:02:21.641Z,11.00
2022-10-29T19:07:24.643Z,9.57
2022-10-29T19:12:28.960Z,9.70
2022-10-29T19:17:31.914Z,10.38
2022-10-29T19:22:34.702Z,10.35
2022-10-29T19:27:38.860Z,9.48
2022-10-29T19:32:41.677Z,9.32
2022-10-29T19:37:44.572Z,9.05
2022-10-29T19:42:48.949Z,10.88
2022-10-29T19:47:51.920Z,9.35
2022-10-29T19:52:55.361Z,9.90
2022-10-29T19:58:00.095Z,9.93
2022-10-29T20:03:02.940Z,8.95
2022-10-29T20:08:08.812Z,8.45
2022-10-29T20:13:14.833Z,9.02
2022-10-29T20:18:18.076Z,8.82
2022-10-29T20:23:21.241Z,9.93
2022-10-29T20:28:25.693Z,10.05
2022-10-29T20:33:28.516Z,9.88
2022-10-29T20:38:31.331Z,9.07
2022-10-29T20:43:35.665Z,10.13
2022-10-29T20:48:38.499Z,9.85
2022-10-29T20:53:41.516Z,10.40
2022-10-29T20:58:45.786Z,9.65
2022-10-29T21:03:49.880Z,10.13
2022-10-29T21:08:53.816Z,9.05
2022-10-29T21:13:58.092Z,9.57
2022-10-29T21:19:02.354Z,9.50
2022-10-29T21:24:05.520Z,9.95
2022-10-29T21:29:09.748Z,8.88
2022-10-29T21:34:12.673Z,9.30
2022-10-29T21:39:15.426Z,9.75
2022-10-29T21:44:19.567Z,9.27
2022-10-29T21:49:22.316Z,9.63
2022-10-29T21:54:28.252Z,9.73
2022-10-29T21:59:32.810Z,8.48
2022-10-29T22:04:35.541Z,10.27
2022-10-29T22:09:38.296Z,9.75
2022-10-29T22:14:42.472Z,8.90
2022-10-29T22:19:45.304Z,9.90
2022-10-29T22:24:48.140Z,10.05
2022-10-29T22:29:54.458Z,9.52
2022-10-29T22:34:57.512Z,9.95
2022-10-29T22:40:00.275Z,9.73
2022-10-29T22:45:04.883Z,10.25
2022-10-29T22:50:08.027Z,9.32
2022-10-29T22:55:10.871Z,9.18
2022-10-29T23:00:15.972Z,9.07
2022-10-29T23:05:18.729Z,9.18
2022-10-29T23:10:21.451Z,9.27
2022-10-29T23:15:25.556Z,9.32
2022-10-29T23:20:28.293Z,8.70
2022-10-29T23:25:31.108Z,8.93
2022-10-29T23:30:35.275Z,9.20
2022-10-29T23:35:38.166Z,11.30
2022-10-29T23:40:41.005Z,9.65
2022-10-29T23:45:45.152Z,8.60
2022-10-29T23:50:48.387Z,9.40
2022-10-29T23:55:51.151Z,8.77
